Johnson Corner, Georgia
Current Conditions -  °F | °C
As of 5:15 PM on Sunday 23 Nov 2014 (Local Time) from KVDI Reporting Station
Thunderstorm Thunderstorm  
Wind Chill: 70°   Ceiling: 2000
Heat Index: 70°   Visibility: 7mi
Dew Point: 70°   Wind: 3mph
Humidity: 100%   Direction: 190°S
Pressure: 29.8"   Gusts: NA
Location:  32.1105°N, 82.281°W
Report Text: KVDI 232215Z AUTO 19003KT 7SM -VCTSRA SCT015 BKN020 OVC032 21/21 A2980 RMK AO2 LTG DSNT ALQS
Loading
Personal Weather Stations






























Interactive Weather Map New forecast layout! Learn more

10-Day Weather Forecast

Advertisements
Track Severe Weather on mobile